Thunder radar more information blitzortung!


Radar de pluja more information rain snow radar


Visita la nostra xarxa de llocs de meteo:

Template documentation
and downloads

And another site



No particular awareness of the weather is required.    There are no Weather-warnings

Pagina Historial Weather Underground text

Diari Resum Novembre 25, 2017 Unitats:  Tant    Imperial   Mètric
« Previous Dia
SegĂźent Dia »
Diari Setmana Mensual Anual Personalitzada
  Maxima: Minima: Media:
Temperatura: 61.3 °F /  16.3 °C 41.5 °F /  5.3 °C 53.8 °F /  12.1 °C
Punt de rosada: 46.6 °F /  8.1 °C 25 °F /  -3.9 °C 39.4 °F /  4.1 °C
Humitat: 66 % 49 % 58 %
Wind Speed: 13.8 mph /  22.2 km/h - 2.8 mph /  4.5 km/h
RĂ fegues de vent: 13.8 mph /  22.2 km/h - -
Vent:- - SW
Pression baro: 30.3 in /  1026.0 hPa 30 in /  1015.8 hPa -
Precipitacions: 0 in /  0.0 mm    
Historical Graphs
 
 
Dades de taula per Novembre 25, 2017
Temps Temperatura Punt de rosada Pression baro Vent Wind Speed RĂ fegues de vent Humitat Rainfall Rate (Hourly)
00:00 49.3 °F /  9.6 °C 37.2 °F /  2.9 °C 30 in /  1015.8 hPa Calm   2 mph /  3.2 km/h 63 % 0 in /  0.0 mm
00:04 55.2 °F /  12.9 °C 37.4 °F /  3.0 °C 30.1 in /  1018.8 hPa SW 1.2 mph /  1.9 km/h   51 % 0 in /  0.0 mm
00:10 49.3 °F /  9.6 °C 37.2 °F /  2.9 °C 30 in /  1015.8 hPa NNW 2 mph /  3.2 km/h 3 mph /  4.8 km/h 63 % 0 in /  0.0 mm
00:20 48.2 °F /  9.0 °C 36.7 °F /  2.6 °C 30 in /  1015.8 hPa North 1 mph /  1.6 km/h 2 mph /  3.2 km/h 64 % 0 in /  0.0 mm
00:30 48.9 °F /  9.4 °C 36.9 °F /  2.7 °C 30 in /  1015.8 hPa NNE 2 mph /  3.2 km/h 3 mph /  4.8 km/h 63 % 0 in /  0.0 mm
00:40 49.3 °F /  9.6 °C 37.2 °F /  2.9 °C 30 in /  1015.8 hPa SW 1 mph /  1.6 km/h 2 mph /  3.2 km/h 63 % 0 in /  0.0 mm
00:50 50.2 °F /  10.1 °C 38.1 °F /  3.4 °C 30 in /  1015.8 hPa SW 2 mph /  3.2 km/h 3 mph /  4.8 km/h 63 % 0 in /  0.0 mm
01:00 51.3 °F /  10.7 °C 39 °F /  3.9 °C 30 in /  1015.8 hPa WSW 3 mph /  4.8 km/h 3 mph /  4.8 km/h 63 % 0 in /  0.0 mm
01:10 51.6 °F /  10.9 °C 39.4 °F /  4.1 °C 30 in /  1016.8 hPa WSW 2 mph /  3.2 km/h 2 mph /  3.2 km/h 63 % 0 in /  0.0 mm
01:20 50.9 °F /  10.5 °C 38.7 °F /  3.7 °C 30 in /  1015.8 hPa Calm   1 mph /  1.6 km/h 63 % 0 in /  0.0 mm
01:30 50.4 °F /  10.2 °C 38.1 °F /  3.4 °C 30 in /  1015.8 hPa SW 1 mph /  1.6 km/h 2 mph /  3.2 km/h 63 % 0 in /  0.0 mm
01:40 50.2 °F /  10.1 °C 38.1 °F /  3.4 °C 30 in /  1015.8 hPa WSW 1 mph /  1.6 km/h 2 mph /  3.2 km/h 63 % 0 in /  0.0 mm
01:50 50.4 °F /  10.2 °C 38.1 °F /  3.4 °C 30 in /  1015.8 hPa WSW 1 mph /  1.6 km/h 2 mph /  3.2 km/h 63 % 0 in /  0.0 mm
02:00 51.3 °F /  10.7 °C 39 °F /  3.9 °C 30 in /  1015.8 hPa WSW 2 mph /  3.2 km/h 3 mph /  4.8 km/h 63 % 0 in /  0.0 mm
02:10 51.8 °F /  11.0 °C 39.2 °F /  4.0 °C 30 in /  1016.8 hPa SW 2 mph /  3.2 km/h 2 mph /  3.2 km/h 62 % 0 in /  0.0 mm
08:11 52 °F /  11.1 °C 39.4 °F /  4.1 °C 30 in /  1016.8 hPa WSW 2.3 mph /  3.7 km/h 2.3 mph /  3.7 km/h 62 % 0 in /  0.0 mm
08:12 52 °F /  11.1 °C 39.4 °F /  4.1 °C 30 in /  1016.8 hPa West 2.4 mph /  3.9 km/h 2.4 mph /  3.9 km/h 62 % 0 in /  0.0 mm
08:13 52 °F /  11.1 °C 39.4 °F /  4.1 °C 30 in /  1016.8 hPa West 2.3 mph /  3.7 km/h 2.3 mph /  3.7 km/h 62 % 0 in /  0.0 mm
08:18 52.7 °F /  11.5 °C 39.9 °F /  4.4 °C 30 in /  1016.8 hPa West 2.3 mph /  3.7 km/h 2.3 mph /  3.7 km/h 62 % 0 in /  0.0 mm
08:23 53.2 °F /  11.8 °C 40.1 °F /  4.5 °C 30 in /  1016.8 hPa WNW 1.2 mph /  1.9 km/h 1.2 mph /  1.9 km/h 61 % 0 in /  0.0 mm
08:28 53.2 °F /  11.8 °C 40.1 °F /  4.5 °C 30 in /  1016.8 hPa SW 2.2 mph /  3.5 km/h   61 % 0 in /  0.0 mm
08:33 52.2 °F /  11.2 °C 39 °F /  3.9 °C 30 in /  1016.8 hPa West 2.3 mph /  3.7 km/h 2.3 mph /  3.7 km/h 61 % 0 in /  0.0 mm
08:38 52 °F /  11.1 °C 38.8 °F /  3.8 °C 30 in /  1016.8 hPa West 2.6 mph /  4.2 km/h 2.6 mph /  4.2 km/h 61 % 0 in /  0.0 mm
08:43 52.9 °F /  11.6 °C 39.7 °F /  4.3 °C 30 in /  1016.8 hPa WSW 3.5 mph /  5.6 km/h 3.5 mph /  5.6 km/h 61 % 0 in /  0.0 mm
08:53 54.9 °F /  12.7 °C 41.2 °F /  5.1 °C 30 in /  1016.8 hPa West 2.4 mph /  3.9 km/h 2.4 mph /  3.9 km/h 60 % 0 in /  0.0 mm
08:58 54.7 °F /  12.6 °C 41.2 °F /  5.1 °C 30 in /  1016.8 hPa SW 2.4 mph /  3.9 km/h 2.4 mph /  3.9 km/h 60 % 0 in /  0.0 mm
09:03 53.6 °F /  12.0 °C 39.9 °F /  4.4 °C 30.1 in /  1017.8 hPa SW 2.3 mph /  3.7 km/h 2.3 mph /  3.7 km/h 60 % 0 in /  0.0 mm
09:08 52.7 °F /  11.5 °C 39.2 °F /  4.0 °C 30.1 in /  1017.8 hPa WSW 2.4 mph /  3.9 km/h 2.4 mph /  3.9 km/h 60 % 0 in /  0.0 mm
09:13 52.7 °F /  11.5 °C 39.2 °F /  4.0 °C 30.1 in /  1017.8 hPa WSW 2.6 mph /  4.2 km/h 2.6 mph /  4.2 km/h 60 % 0 in /  0.0 mm
09:18 52.9 °F /  11.6 °C 39.7 °F /  4.3 °C 30.1 in /  1017.8 hPa Calm     61 % 0 in /  0.0 mm
09:23 53.4 °F /  11.9 °C 40.3 °F /  4.6 °C 30.1 in /  1017.8 hPa WNW 2.4 mph /  3.9 km/h 2.4 mph /  3.9 km/h 61 % 0 in /  0.0 mm
09:28 53.8 °F /  12.1 °C 40.6 °F /  4.8 °C 30.1 in /  1017.8 hPa SW 2.6 mph /  4.2 km/h 2.6 mph /  4.2 km/h 61 % 0 in /  0.0 mm
09:33 52.7 °F /  11.5 °C 39.6 °F /  4.2 °C 30.1 in /  1017.8 hPa ENE 2.3 mph /  3.7 km/h 2.3 mph /  3.7 km/h 61 % 0 in /  0.0 mm
09:38 51.6 °F /  10.9 °C 38.7 °F /  3.7 °C 30.1 in /  1017.8 hPa ENE 1.2 mph /  1.9 km/h 1.2 mph /  1.9 km/h 61 % 0 in /  0.0 mm
09:43 51.6 °F /  10.9 °C 39 °F /  3.9 °C 30.1 in /  1017.8 hPa ENE 1.2 mph /  1.9 km/h   62 % 0 in /  0.0 mm
09:48 51.1 °F /  10.6 °C 38.5 °F /  3.6 °C 30.1 in /  1017.8 hPa ENE 2.6 mph /  4.2 km/h 2.6 mph /  4.2 km/h 62 % 0 in /  0.0 mm
09:53 50.5 °F /  10.3 °C 38.5 °F /  3.6 °C 30.1 in /  1017.8 hPa ENE 3.5 mph /  5.6 km/h 3.5 mph /  5.6 km/h 63 % 0 in /  0.0 mm
09:58 50.2 °F /  10.1 °C 38.1 °F /  3.4 °C 30.1 in /  1017.8 hPa ENE 1.2 mph /  1.9 km/h 1.2 mph /  1.9 km/h 63 % 0 in /  0.0 mm
10:03 50 °F /  10.0 °C 37.9 °F /  3.3 °C 30.1 in /  1017.8 hPa SW 2.3 mph /  3.7 km/h 2.3 mph /  3.7 km/h 63 % 0 in /  0.0 mm
10:08 49.5 °F /  9.7 °C 37.4 °F /  3.0 °C 30.1 in /  1017.8 hPa WSW 3.5 mph /  5.6 km/h 3.5 mph /  5.6 km/h 63 % 0 in /  0.0 mm
10:13 49.3 °F /  9.6 °C 37.2 °F /  2.9 °C 30.1 in /  1017.8 hPa WSW 3.6 mph /  5.8 km/h 3.6 mph /  5.8 km/h 63 % 0 in /  0.0 mm
10:18 49.6 °F /  9.8 °C 37.9 °F /  3.3 °C 30 in /  1016.8 hPa SW 3.5 mph /  5.6 km/h 3.5 mph /  5.6 km/h 64 % 0 in /  0.0 mm
10:23 50 °F /  10.0 °C 38.7 °F /  3.7 °C 30 in /  1016.8 hPa WSW 2.4 mph /  3.9 km/h   65 % 0 in /  0.0 mm
10:28 50.7 °F /  10.4 °C 39.4 °F /  4.1 °C 30 in /  1016.8 hPa West 2.3 mph /  3.7 km/h 2.3 mph /  3.7 km/h 65 % 0 in /  0.0 mm
10:33 52.3 °F /  11.3 °C 40.5 °F /  4.7 °C 30.1 in /  1017.8 hPa WNW 1.2 mph /  1.9 km/h 1.4 mph /  2.3 km/h 64 % 0 in /  0.0 mm
10:38 53.6 °F /  12.0 °C 41.7 °F /  5.4 °C 30.1 in /  1017.8 hPa West 2.3 mph /  3.7 km/h 2.3 mph /  3.7 km/h 64 % 0 in /  0.0 mm
10:43 54.1 °F /  12.3 °C 41.7 °F /  5.4 °C 30.1 in /  1017.8 hPa WNW 1.2 mph /  1.9 km/h   63 % 0 in /  0.0 mm
10:48 53.8 °F /  12.1 °C 41.9 °F /  5.5 °C 30.1 in /  1017.8 hPa Calm     64 % 0 in /  0.0 mm
10:53 53.4 °F /  11.9 °C 41.5 °F /  5.3 °C 30.1 in /  1017.8 hPa West 1.4 mph /  2.3 km/h   64 % 0 in /  0.0 mm
10:58 53.8 °F /  12.1 °C 41.9 °F /  5.5 °C 30.1 in /  1017.8 hPa WNW 1.2 mph /  1.9 km/h   64 % 0 in /  0.0 mm
11:03 54.3 °F /  12.4 °C 42.1 °F /  5.6 °C 30.1 in /  1017.8 hPa SW 2.3 mph /  3.7 km/h 2.3 mph /  3.7 km/h 63 % 0 in /  0.0 mm
11:08 54.1 °F /  12.3 °C 42.3 °F /  5.7 °C 30.1 in /  1017.8 hPa SW 3.5 mph /  5.6 km/h 3.5 mph /  5.6 km/h 64 % 0 in /  0.0 mm
11:13 54 °F /  12.2 °C 41.5 °F /  5.3 °C 30.1 in /  1017.8 hPa WSW 3.5 mph /  5.6 km/h 3.5 mph /  5.6 km/h 63 % 0 in /  0.0 mm
11:18 54 °F /  12.2 °C 41.5 °F /  5.3 °C 30.1 in /  1018.8 hPa SW 2.4 mph /  3.9 km/h 2.4 mph /  3.9 km/h 63 % 0 in /  0.0 mm
11:23 54.7 °F /  12.6 °C 41.9 °F /  5.5 °C 30.1 in /  1018.8 hPa South 3.5 mph /  5.6 km/h 3.5 mph /  5.6 km/h 62 % 0 in /  0.0 mm
11:29 55 °F /  12.8 °C 42.3 °F /  5.7 °C 30.1 in /  1018.8 hPa South 5.8 mph /  9.3 km/h 5.8 mph /  9.3 km/h 62 % 0 in /  0.0 mm
11:34 55.2 °F /  12.9 °C 42.4 °F /  5.8 °C 30.1 in /  1017.8 hPa SW 4 mph /  6.4 km/h 4 mph /  6.4 km/h 62 % 0 in /  0.0 mm
11:39 55.6 °F /  13.1 °C 42.8 °F /  6.0 °C 30.1 in /  1017.8 hPa West 4.6 mph /  7.4 km/h 4.6 mph /  7.4 km/h 62 % 0 in /  0.0 mm
11:44 55.9 °F /  13.3 °C 42.6 °F /  5.9 °C 30.1 in /  1017.8 hPa WNW 1.2 mph /  1.9 km/h 1.2 mph /  1.9 km/h 61 % 0 in /  0.0 mm
11:49 56.1 °F /  13.4 °C 42.8 °F /  6.0 °C 30.1 in /  1017.8 hPa SW 2.3 mph /  3.7 km/h 2.3 mph /  3.7 km/h 61 % 0 in /  0.0 mm
11:54 56.5 °F /  13.6 °C 43.2 °F /  6.2 °C 30.1 in /  1017.8 hPa WNW 2.2 mph /  3.5 km/h 2.2 mph /  3.5 km/h 61 % 0 in /  0.0 mm
11:59 57 °F /  13.9 °C 43.3 °F /  6.3 °C 30.1 in /  1017.8 hPa WSW 3.3 mph /  5.3 km/h 3.3 mph /  5.3 km/h 60 % 0 in /  0.0 mm
12:04 57 °F /  13.9 °C 43.3 °F /  6.3 °C 30.1 in /  1017.8 hPa West 3.5 mph /  5.6 km/h 3.5 mph /  5.6 km/h 60 % 0 in /  0.0 mm
12:09 57 °F /  13.9 °C 43.3 °F /  6.3 °C 30.1 in /  1017.8 hPa NNW 2.3 mph /  3.7 km/h 2.3 mph /  3.7 km/h 60 % 0 in /  0.0 mm
12:14 57.2 °F /  14.0 °C 43.3 °F /  6.3 °C 30.1 in /  1017.8 hPa ESE 3.5 mph /  5.6 km/h 3.5 mph /  5.6 km/h 60 % 0 in /  0.0 mm
12:19 57.4 °F /  14.1 °C 43.5 °F /  6.4 °C 30.1 in /  1018.8 hPa WSW 4.6 mph /  7.4 km/h 4.6 mph /  7.4 km/h 60 % 0 in /  0.0 mm
12:24 57.4 °F /  14.1 °C 43.5 °F /  6.4 °C 30.1 in /  1018.8 hPa SW 3.5 mph /  5.6 km/h 3.5 mph /  5.6 km/h 60 % 0 in /  0.0 mm
12:29 57.4 °F /  14.1 °C 43.5 °F /  6.4 °C 30.1 in /  1018.8 hPa East 2.6 mph /  4.2 km/h 2.6 mph /  4.2 km/h 60 % 0 in /  0.0 mm
12:30 57.4 °F /  14.1 °C 43.5 °F /  6.4 °C 30.1 in /  1018.8 hPa East 3.5 mph /  5.6 km/h 3.5 mph /  5.6 km/h 60 % 0 in /  0.0 mm
12:35 57.6 °F /  14.2 °C 43.9 °F /  6.6 °C 30.1 in /  1018.8 hPa ESE 2.6 mph /  4.2 km/h 2.6 mph /  4.2 km/h 60 % 0 in /  0.0 mm
12:40 57.6 °F /  14.2 °C 43.9 °F /  6.6 °C 30.1 in /  1018.8 hPa West 5.6 mph /  9.0 km/h 5.6 mph /  9.0 km/h 60 % 0 in /  0.0 mm
12:45 57.6 °F /  14.2 °C 43.9 °F /  6.6 °C 30.1 in /  1018.8 hPa WNW 3.5 mph /  5.6 km/h 3.5 mph /  5.6 km/h 60 % 0 in /  0.0 mm
12:50 57.7 °F /  14.3 °C 43.9 °F /  6.6 °C 30.1 in /  1018.8 hPa WSW 2.3 mph /  3.7 km/h 2.3 mph /  3.7 km/h 60 % 0 in /  0.0 mm
12:52 57.7 °F /  14.3 °C 43.9 °F /  6.6 °C 30.1 in /  1018.8 hPa WSW 3.5 mph /  5.6 km/h 3.6 mph /  5.8 km/h 60 % 0 in /  0.0 mm
12:57 57.6 °F /  14.2 °C 44.2 °F /  6.8 °C 30.1 in /  1018.8 hPa West 4.6 mph /  7.4 km/h 4.6 mph /  7.4 km/h 61 % 0 in /  0.0 mm
13:02 57.6 °F /  14.2 °C 44.2 °F /  6.8 °C 30.1 in /  1018.8 hPa SSW 3.5 mph /  5.6 km/h 3.5 mph /  5.6 km/h 61 % 0 in /  0.0 mm
13:07 57.6 °F /  14.2 °C 44.2 °F /  6.8 °C 30.1 in /  1018.8 hPa West 3.5 mph /  5.6 km/h 3.5 mph /  5.6 km/h 61 % 0 in /  0.0 mm
13:12 57.9 °F /  14.4 °C 44.4 °F /  6.9 °C 30.1 in /  1018.8 hPa SW 2.9 mph /  4.7 km/h 2.9 mph /  4.7 km/h 61 % 0 in /  0.0 mm
13:22 59 °F /  15.0 °C 45.7 °F /  7.6 °C 30.1 in /  1018.8 hPa WSW 3.8 mph /  6.1 km/h 3.8 mph /  6.1 km/h 61 % 0 in /  0.0 mm
13:27 59.7 °F /  15.4 °C 46.2 °F /  7.9 °C 30.1 in /  1018.8 hPa WNW 4.7 mph /  7.6 km/h 4.7 mph /  7.6 km/h 61 % 0 in /  0.0 mm
13:32 60.1 °F /  15.6 °C 46 °F /  7.8 °C 30.1 in /  1018.8 hPa West 4.3 mph /  6.9 km/h 4.3 mph /  6.9 km/h 60 % 0 in /  0.0 mm
13:37 60.4 °F /  15.8 °C 46.6 °F /  8.1 °C 30.1 in /  1018.8 hPa WNW 3.5 mph /  5.6 km/h 3.5 mph /  5.6 km/h 60 % 0 in /  0.0 mm
13:42 60.3 °F /  15.7 °C 46.2 °F /  7.9 °C 30.1 in /  1018.8 hPa WSW 4.6 mph /  7.4 km/h 4.6 mph /  7.4 km/h 60 % 0 in /  0.0 mm
13:47 60.1 °F /  15.6 °C 45.7 °F /  7.6 °C 30.1 in /  1017.8 hPa WNW 4.6 mph /  7.4 km/h 4.6 mph /  7.4 km/h 59 % 0 in /  0.0 mm
13:52 59.9 °F /  15.5 °C 45.5 °F /  7.5 °C 30.1 in /  1017.8 hPa West 5.8 mph /  9.3 km/h 5.8 mph /  9.3 km/h 59 % 0 in /  0.0 mm
13:57 59.9 °F /  15.5 °C 45.5 °F /  7.5 °C 30.1 in /  1017.8 hPa SW 2.3 mph /  3.7 km/h 2.4 mph /  3.9 km/h 59 % 0 in /  0.0 mm
14:02 60.1 °F /  15.6 °C 45.7 °F /  7.6 °C 30.1 in /  1017.8 hPa SW 2.9 mph /  4.7 km/h 2.9 mph /  4.7 km/h 59 % 0 in /  0.0 mm
14:07 60.1 °F /  15.6 °C 45.7 °F /  7.6 °C 30.1 in /  1017.8 hPa West 3.5 mph /  5.6 km/h 3.5 mph /  5.6 km/h 59 % 0 in /  0.0 mm
14:12 60.1 °F /  15.6 °C 45.7 °F /  7.6 °C 30.1 in /  1017.8 hPa West 2.6 mph /  4.2 km/h 2.6 mph /  4.2 km/h 59 % 0 in /  0.0 mm
14:17 59.9 °F /  15.5 °C 45.5 °F /  7.5 °C 30.1 in /  1017.8 hPa WSW 1.4 mph /  2.3 km/h 1.4 mph /  2.3 km/h 59 % 0 in /  0.0 mm
14:22 60.1 °F /  15.6 °C 45.7 °F /  7.6 °C 30.1 in /  1017.8 hPa SW 2.3 mph /  3.7 km/h 2.3 mph /  3.7 km/h 59 % 0 in /  0.0 mm
14:27 60.3 °F /  15.7 °C 45.9 °F /  7.7 °C 30.1 in /  1017.8 hPa SW 2.4 mph /  3.9 km/h 2.4 mph /  3.9 km/h 59 % 0 in /  0.0 mm
14:28 60.3 °F /  15.7 °C 45.9 °F /  7.7 °C 30.1 in /  1017.8 hPa SW 3.1 mph /  5.0 km/h 3.1 mph /  5.0 km/h 59 % 0 in /  0.0 mm
14:33 60.3 °F /  15.7 °C 45.9 °F /  7.7 °C 30.1 in /  1017.8 hPa NW 2.3 mph /  3.7 km/h 2.3 mph /  3.7 km/h 59 % 0 in /  0.0 mm
14:38 60.1 °F /  15.6 °C 45.7 °F /  7.6 °C 30.1 in /  1017.8 hPa NW 1.4 mph /  2.3 km/h   59 % 0 in /  0.0 mm
14:43 60.1 °F /  15.6 °C 45.7 °F /  7.6 °C 30.1 in /  1017.8 hPa North 2.3 mph /  3.7 km/h 2.3 mph /  3.7 km/h 59 % 0 in /  0.0 mm
14:48 60.3 °F /  15.7 °C 45.9 °F /  7.7 °C 30.1 in /  1017.8 hPa ENE 2.3 mph /  3.7 km/h 2.3 mph /  3.7 km/h 59 % 0 in /  0.0 mm
14:53 60.3 °F /  15.7 °C 45.9 °F /  7.7 °C 30.1 in /  1017.8 hPa ESE 3.6 mph /  5.8 km/h 3.6 mph /  5.8 km/h 59 % 0 in /  0.0 mm
14:58 60.3 °F /  15.7 °C 45.3 °F /  7.4 °C 30.1 in /  1017.8 hPa NE 1.2 mph /  1.9 km/h   58 % 0 in /  0.0 mm
15:03 60.3 °F /  15.7 °C 45.3 °F /  7.4 °C 30.1 in /  1018.8 hPa SE 2.3 mph /  3.7 km/h 2.3 mph /  3.7 km/h 58 % 0 in /  0.0 mm
15:08 60.1 °F /  15.6 °C 45.1 °F /  7.3 °C 30.1 in /  1018.8 hPa East 2.3 mph /  3.7 km/h 2.4 mph /  3.9 km/h 58 % 0 in /  0.0 mm
15:13 60.1 °F /  15.6 °C 45.1 °F /  7.3 °C 30.1 in /  1018.8 hPa East 2.3 mph /  3.7 km/h 2.3 mph /  3.7 km/h 58 % 0 in /  0.0 mm
15:18 59.9 °F /  15.5 °C 45.1 °F /  7.3 °C 30.1 in /  1018.8 hPa ESE 2.6 mph /  4.2 km/h 2.6 mph /  4.2 km/h 58 % 0 in /  0.0 mm
15:23 59.7 °F /  15.4 °C 45 °F /  7.2 °C 30.1 in /  1018.8 hPa ESE 1.2 mph /  1.9 km/h 1.2 mph /  1.9 km/h 58 % 0 in /  0.0 mm
15:28 60.1 °F /  15.6 °C 45.1 °F /  7.3 °C 30.1 in /  1018.8 hPa Calm     58 % 0 in /  0.0 mm
15:33 60.3 °F /  15.7 °C 45.3 °F /  7.4 °C 30.1 in /  1018.8 hPa Calm     58 % 0 in /  0.0 mm
15:38 60.6 °F /  15.9 °C 45.9 °F /  7.7 °C 30.1 in /  1018.8 hPa Calm     58 % 0 in /  0.0 mm
15:43 60.6 °F /  15.9 °C 45.9 °F /  7.7 °C 30.1 in /  1018.8 hPa SSE 2.3 mph /  3.7 km/h 2.3 mph /  3.7 km/h 58 % 0 in /  0.0 mm
15:46 61 °F /  16.1 °C 46 °F /  7.8 °C 30.1 in /  1018.8 hPa SSE 1.2 mph /  1.9 km/h   58 % 0 in /  0.0 mm
15:51 61.3 °F /  16.3 °C 46.4 °F /  8.0 °C 30.1 in /  1018.8 hPa ESE 2.3 mph /  3.7 km/h 2.3 mph /  3.7 km/h 58 % 0 in /  0.0 mm
15:56 60.8 °F /  16.0 °C 45.5 °F /  7.5 °C 30.1 in /  1018.8 hPa ENE 3.5 mph /  5.6 km/h 3.5 mph /  5.6 km/h 57 % 0 in /  0.0 mm
16:01 60.8 °F /  16.0 °C 45.5 °F /  7.5 °C 30.1 in /  1018.8 hPa ENE 3.5 mph /  5.6 km/h 3.5 mph /  5.6 km/h 57 % 0 in /  0.0 mm
16:06 60.8 °F /  16.0 °C 45.9 °F /  7.7 °C 30.1 in /  1018.8 hPa ESE 2.3 mph /  3.7 km/h 2.3 mph /  3.7 km/h 58 % 0 in /  0.0 mm
16:11 60.8 °F /  16.0 °C 45.5 °F /  7.5 °C 30.1 in /  1018.8 hPa ESE 3.5 mph /  5.6 km/h 3.5 mph /  5.6 km/h 57 % 0 in /  0.0 mm
16:16 60.6 °F /  15.9 °C 45.9 °F /  7.7 °C 30.1 in /  1019.9 hPa East 2.3 mph /  3.7 km/h 2.3 mph /  3.7 km/h 58 % 0 in /  0.0 mm
16:21 60.4 °F /  15.8 °C 45.7 °F /  7.6 °C 30.1 in /  1019.9 hPa East 2.6 mph /  4.2 km/h 2.6 mph /  4.2 km/h 58 % 0 in /  0.0 mm
16:26 60.3 °F /  15.7 °C 45.3 °F /  7.4 °C 30.1 in /  1019.9 hPa SE 2.3 mph /  3.7 km/h 2.3 mph /  3.7 km/h 58 % 0 in /  0.0 mm
16:31 60.3 °F /  15.7 °C 45.3 °F /  7.4 °C 30.1 in /  1019.9 hPa ESE 4.6 mph /  7.4 km/h 4.6 mph /  7.4 km/h 58 % 0 in /  0.0 mm
16:36 60.1 °F /  15.6 °C 44.8 °F /  7.1 °C 30.1 in /  1019.9 hPa ESE 3.5 mph /  5.6 km/h 3.5 mph /  5.6 km/h 57 % 0 in /  0.0 mm
16:41 60.1 °F /  15.6 °C 44.8 °F /  7.1 °C 30.1 in /  1019.9 hPa SE 2.3 mph /  3.7 km/h 2.4 mph /  3.9 km/h 57 % 0 in /  0.0 mm
16:46 59.7 °F /  15.4 °C 44.4 °F /  6.9 °C 30.1 in /  1019.9 hPa ESE 3.8 mph /  6.1 km/h 3.8 mph /  6.1 km/h 57 % 0 in /  0.0 mm
16:51 59.4 °F /  15.2 °C 44.1 °F /  6.7 °C 30.1 in /  1019.9 hPa East 5.8 mph /  9.3 km/h 5.8 mph /  9.3 km/h 57 % 0 in /  0.0 mm
16:56 59 °F /  15.0 °C 44.2 °F /  6.8 °C 30.1 in /  1019.9 hPa ENE 3.6 mph /  5.8 km/h 3.6 mph /  5.8 km/h 58 % 0 in /  0.0 mm
17:01 58.8 °F /  14.9 °C 44.1 °F /  6.7 °C 30.1 in /  1019.9 hPa ENE 4.6 mph /  7.4 km/h 4.6 mph /  7.4 km/h 58 % 0 in /  0.0 mm
17:06 58.5 °F /  14.7 °C 44.2 °F /  6.8 °C 30.1 in /  1019.9 hPa NNE 4.6 mph /  7.4 km/h 4.6 mph /  7.4 km/h 59 % 0 in /  0.0 mm
17:11 58.1 °F /  14.5 °C 44.2 °F /  6.8 °C 30.1 in /  1019.9 hPa ESE 4.6 mph /  7.4 km/h 4.6 mph /  7.4 km/h 60 % 0 in /  0.0 mm
17:16 57.9 °F /  14.4 °C 44.4 °F /  6.9 °C 30.1 in /  1019.9 hPa NNE 4.6 mph /  7.4 km/h 4.6 mph /  7.4 km/h 61 % 0 in /  0.0 mm
17:21 57.7 °F /  14.3 °C 44.4 °F /  6.9 °C 30.1 in /  1019.9 hPa NW 2 mph /  3.2 km/h 2 mph /  3.2 km/h 61 % 0 in /  0.0 mm
17:26 57.6 °F /  14.2 °C 44.2 °F /  6.8 °C 30.1 in /  1019.9 hPa NNW 4.6 mph /  7.4 km/h 4.6 mph /  7.4 km/h 61 % 0 in /  0.0 mm
17:31 57.7 °F /  14.3 °C 44.8 °F /  7.1 °C 30.1 in /  1019.9 hPa East 4.6 mph /  7.4 km/h 4.6 mph /  7.4 km/h 62 % 0 in /  0.0 mm
17:36 58.1 °F /  14.5 °C 45.1 °F /  7.3 °C 30.1 in /  1019.9 hPa ENE 5.8 mph /  9.3 km/h 5.8 mph /  9.3 km/h 62 % 0 in /  0.0 mm
17:41 57.9 °F /  14.4 °C 45 °F /  7.2 °C 30.1 in /  1019.9 hPa NE 2.3 mph /  3.7 km/h   62 % 0 in /  0.0 mm
17:46 57.6 °F /  14.2 °C 45.1 °F /  7.3 °C 30.1 in /  1019.9 hPa East 3.5 mph /  5.6 km/h 3.5 mph /  5.6 km/h 63 % 0 in /  0.0 mm
17:51 57.6 °F /  14.2 °C 44.6 °F /  7.0 °C 30.1 in /  1019.9 hPa WNW 2.3 mph /  3.7 km/h 2.3 mph /  3.7 km/h 62 % 0 in /  0.0 mm
17:56 57.2 °F /  14.0 °C 44.8 °F /  7.1 °C 30.1 in /  1019.9 hPa North 1.2 mph /  1.9 km/h 1.2 mph /  1.9 km/h 63 % 0 in /  0.0 mm
18:01 57.2 °F /  14.0 °C 44.8 °F /  7.1 °C 30.1 in /  1019.9 hPa NW 2.3 mph /  3.7 km/h 2.3 mph /  3.7 km/h 63 % 0 in /  0.0 mm
18:06 56.8 °F /  13.8 °C 44.4 °F /  6.9 °C 30.1 in /  1019.9 hPa NNE 1.2 mph /  1.9 km/h 1.2 mph /  1.9 km/h 63 % 0 in /  0.0 mm
18:11 56.5 °F /  13.6 °C 44.4 °F /  6.9 °C 30.1 in /  1019.9 hPa ENE 1.2 mph /  1.9 km/h 1.2 mph /  1.9 km/h 64 % 0 in /  0.0 mm
18:16 56.1 °F /  13.4 °C 44.1 °F /  6.7 °C 30.2 in /  1020.9 hPa SW 2.3 mph /  3.7 km/h 2.3 mph /  3.7 km/h 64 % 0 in /  0.0 mm
18:21 55.6 °F /  13.1 °C 43.5 °F /  6.4 °C 30.2 in /  1020.9 hPa WSW 2.3 mph /  3.7 km/h 2.6 mph /  4.2 km/h 64 % 0 in /  0.0 mm
18:25 46.4 °F /  8.0 °C 28.8 °F /  -1.8 °C 30.2 in /  1022.9 hPa SW 1 mph /  1.6 km/h 2 mph /  3.2 km/h 50 % 0 in /  0.0 mm
18:26 55.4 °F /  13.0 °C 43.3 °F /  6.3 °C 30.2 in /  1020.9 hPa West 1.4 mph /  2.3 km/h 1.4 mph /  2.3 km/h 64 % 0 in /  0.0 mm
18:31 55.4 °F /  13.0 °C 43.9 °F /  6.6 °C 30.2 in /  1021.9 hPa West 1.2 mph /  1.9 km/h 1.2 mph /  1.9 km/h 65 % 0 in /  0.0 mm
18:33 55.4 °F /  13.0 °C 43.9 °F /  6.6 °C 30.2 in /  1021.9 hPa West 1.6 mph /  2.6 km/h 1.6 mph /  2.6 km/h 65 % 0 in /  0.0 mm
18:35 45.9 °F /  7.7 °C 28.2 °F /  -2.1 °C 30.2 in /  1023.9 hPa Calm     50 % 0 in /  0.0 mm
18:43 55.4 °F /  13.0 °C 43.9 °F /  6.6 °C 30.2 in /  1021.9 hPa West 2.3 mph /  3.7 km/h 2.3 mph /  3.7 km/h 65 % 0 in /  0.0 mm
18:45 45.7 °F /  7.6 °C 28 °F /  -2.2 °C 30.2 in /  1023.9 hPa Calm   2 mph /  3.2 km/h 50 % 0 in /  0.0 mm
18:48 55.2 °F /  12.9 °C 43.7 °F /  6.5 °C 30.2 in /  1021.9 hPa WNW 2.4 mph /  3.9 km/h 2.4 mph /  3.9 km/h 65 % 0 in /  0.0 mm
18:53 55.4 °F /  13.0 °C 43.9 °F /  6.6 °C 30.2 in /  1021.9 hPa WNW 2.3 mph /  3.7 km/h 2.3 mph /  3.7 km/h 65 % 0 in /  0.0 mm
18:55 45.9 °F /  7.7 °C 28.2 °F /  -2.1 °C 30.3 in /  1024.9 hPa Calm   3 mph /  4.8 km/h 50 % 0 in /  0.0 mm
18:58 55.6 °F /  13.1 °C 44.1 °F /  6.7 °C 30.2 in /  1021.9 hPa West 2.6 mph /  4.2 km/h 2.6 mph /  4.2 km/h 65 % 0 in /  0.0 mm
19:03 55.6 °F /  13.1 °C 44.4 °F /  6.9 °C 30.2 in /  1021.9 hPa WSW 1.2 mph /  1.9 km/h 1.2 mph /  1.9 km/h 66 % 0 in /  0.0 mm
19:05 45.7 °F /  7.6 °C 28 °F /  -2.2 °C 30.2 in /  1023.9 hPa WSW 1 mph /  1.6 km/h 2 mph /  3.2 km/h 50 % 0 in /  0.0 mm
19:08 55.4 °F /  13.0 °C 44.2 °F /  6.8 °C 30.2 in /  1021.9 hPa West 1.2 mph /  1.9 km/h   66 % 0 in /  0.0 mm
19:13 55.4 °F /  13.0 °C 44.2 °F /  6.8 °C 30.2 in /  1021.9 hPa SW 1.2 mph /  1.9 km/h   66 % 0 in /  0.0 mm
19:15 45.3 °F /  7.4 °C 27.9 °F /  -2.3 °C 30.2 in /  1023.9 hPa WSW 1 mph /  1.6 km/h 2 mph /  3.2 km/h 50 % 0 in /  0.0 mm
19:18 55.4 °F /  13.0 °C 44.2 °F /  6.8 °C 30.2 in /  1021.9 hPa South 1.6 mph /  2.6 km/h   66 % 0 in /  0.0 mm
19:23 55.2 °F /  12.9 °C 43.7 °F /  6.5 °C 30.2 in /  1021.9 hPa SW 2.3 mph /  3.7 km/h 2.3 mph /  3.7 km/h 65 % 0 in /  0.0 mm
19:25 45.1 °F /  7.3 °C 27.7 °F /  -2.4 °C 30.3 in /  1024.9 hPa WSW 1 mph /  1.6 km/h 2 mph /  3.2 km/h 50 % 0 in /  0.0 mm
19:28 55.2 °F /  12.9 °C 43.7 °F /  6.5 °C 30.2 in /  1021.9 hPa SW 2.3 mph /  3.7 km/h 2.3 mph /  3.7 km/h 65 % 0 in /  0.0 mm
19:33 55.2 °F /  12.9 °C 43.7 °F /  6.5 °C 30.2 in /  1021.9 hPa WSW 4.3 mph /  6.9 km/h 4.3 mph /  6.9 km/h 65 % 0 in /  0.0 mm
19:35 45.1 °F /  7.3 °C 27.7 °F /  -2.4 °C 30.2 in /  1023.9 hPa WSW 2 mph /  3.2 km/h 2 mph /  3.2 km/h 50 % 0 in /  0.0 mm
19:38 55.4 °F /  13.0 °C 43.9 °F /  6.6 °C 30.2 in /  1021.9 hPa WSW 3.5 mph /  5.6 km/h 3.5 mph /  5.6 km/h 65 % 0 in /  0.0 mm
19:43 55.4 °F /  13.0 °C 43.9 °F /  6.6 °C 30.2 in /  1021.9 hPa SSW 2.4 mph /  3.9 km/h 2.4 mph /  3.9 km/h 65 % 0 in /  0.0 mm
19:45 45.1 °F /  7.3 °C 27.7 °F /  -2.4 °C 30.2 in /  1023.9 hPa Calm   2 mph /  3.2 km/h 50 % 0 in /  0.0 mm
19:48 55.6 °F /  13.1 °C 44.1 °F /  6.7 °C 30.2 in /  1021.9 hPa SW 3.5 mph /  5.6 km/h 3.5 mph /  5.6 km/h 65 % 0 in /  0.0 mm
19:53 55.6 °F /  13.1 °C 44.1 °F /  6.7 °C 30.2 in /  1021.9 hPa West 4.6 mph /  7.4 km/h 4.6 mph /  7.4 km/h 65 % 0 in /  0.0 mm
19:55 45 °F /  7.2 °C 27.3 °F /  -2.6 °C 30.2 in /  1023.9 hPa Calm   2 mph /  3.2 km/h 50 % 0 in /  0.0 mm
19:58 55.4 °F /  13.0 °C 43.3 °F /  6.3 °C 30.2 in /  1021.9 hPa West 2.3 mph /  3.7 km/h 2.3 mph /  3.7 km/h 64 % 0 in /  0.0 mm
20:03 55.4 °F /  13.0 °C 43.3 °F /  6.3 °C 30.2 in /  1021.9 hPa West 2.3 mph /  3.7 km/h 2.3 mph /  3.7 km/h 64 % 0 in /  0.0 mm
20:05 44.8 °F /  7.1 °C 27.3 °F /  -2.6 °C 30.3 in /  1024.9 hPa WSW 1 mph /  1.6 km/h 1 mph /  1.6 km/h 50 % 0 in /  0.0 mm
20:08 55.2 °F /  12.9 °C 42.4 °F /  5.8 °C 30.2 in /  1021.9 hPa SW 1.2 mph /  1.9 km/h   62 % 0 in /  0.0 mm
20:13 55 °F /  12.8 °C 41.7 °F /  5.4 °C 30.2 in /  1021.9 hPa West 4.6 mph /  7.4 km/h 4.6 mph /  7.4 km/h 61 % 0 in /  0.0 mm
20:15 44.8 °F /  7.1 °C 27.3 °F /  -2.6 °C 30.3 in /  1024.9 hPa Calm   1 mph /  1.6 km/h 50 % 0 in /  0.0 mm
20:18 55 °F /  12.8 °C 41.4 °F /  5.2 °C 30.2 in /  1022.9 hPa West 5.4 mph /  8.7 km/h 5.4 mph /  8.7 km/h 60 % 0 in /  0.0 mm
20:23 55 °F /  12.8 °C 40.1 °F /  4.5 °C 30.2 in /  1022.9 hPa WSW 5.8 mph /  9.3 km/h 5.8 mph /  9.3 km/h 57 % 0 in /  0.0 mm
20:25 44.8 °F /  7.1 °C 27.3 °F /  -2.6 °C 30.3 in /  1024.9 hPa Calm   2 mph /  3.2 km/h 50 % 0 in /  0.0 mm
20:28 55 °F /  12.8 °C 39.2 °F /  4.0 °C 30.2 in /  1022.9 hPa West 6.9 mph /  11.1 km/h 6.9 mph /  11.1 km/h 55 % 0 in /  0.0 mm
20:33 54.7 °F /  12.6 °C 38.8 °F /  3.8 °C 30.2 in /  1022.9 hPa WSW 4.6 mph /  7.4 km/h 4.6 mph /  7.4 km/h 55 % 0 in /  0.0 mm
20:35 44.6 °F /  7.0 °C 27.1 °F /  -2.7 °C 30.3 in /  1026.0 hPa West 1 mph /  1.6 km/h 2 mph /  3.2 km/h 50 % 0 in /  0.0 mm
20:38 54.1 °F /  12.3 °C 37.8 °F /  3.2 °C 30.2 in /  1022.9 hPa SW 3.5 mph /  5.6 km/h 3.5 mph /  5.6 km/h 54 % 0 in /  0.0 mm
20:43 54.3 °F /  12.4 °C 37.9 °F /  3.3 °C 30.2 in /  1022.9 hPa West 7.4 mph /  11.9 km/h 7.4 mph /  11.9 km/h 54 % 0 in /  0.0 mm
20:45 44.4 °F /  6.9 °C 27 °F /  -2.8 °C 30.3 in /  1026.0 hPa Calm   2 mph /  3.2 km/h 50 % 0 in /  0.0 mm
20:48 54.5 °F /  12.5 °C 37.8 °F /  3.2 °C 30.2 in /  1021.9 hPa NW 5.8 mph /  9.3 km/h 5.8 mph /  9.3 km/h 53 % 0 in /  0.0 mm
20:53 54.3 °F /  12.4 °C 37 °F /  2.8 °C 30.2 in /  1021.9 hPa WSW 6.9 mph /  11.1 km/h 6.9 mph /  11.1 km/h 52 % 0 in /  0.0 mm
20:55 44.6 °F /  7.0 °C 27.1 °F /  -2.7 °C 30.3 in /  1024.9 hPa Calm   2 mph /  3.2 km/h 50 % 0 in /  0.0 mm
20:58 54.1 °F /  12.3 °C 36.9 °F /  2.7 °C 30.2 in /  1021.9 hPa West 3.5 mph /  5.6 km/h 4 mph /  6.4 km/h 52 % 0 in /  0.0 mm
21:03 54 °F /  12.2 °C 36.7 °F /  2.6 °C 30.2 in /  1022.9 hPa West 5.8 mph /  9.3 km/h 5.8 mph /  9.3 km/h 52 % 0 in /  0.0 mm
21:05 44.6 °F /  7.0 °C 27.1 °F /  -2.7 °C 30.3 in /  1026.0 hPa Calm   2 mph /  3.2 km/h 50 % 0 in /  0.0 mm
21:08 54 °F /  12.2 °C 36.7 °F /  2.6 °C 30.2 in /  1022.9 hPa West 5.8 mph /  9.3 km/h 5.8 mph /  9.3 km/h 52 % 0 in /  0.0 mm
21:15 44.6 °F /  7.0 °C 27.1 °F /  -2.7 °C 30.3 in /  1026.0 hPa West 1 mph /  1.6 km/h 3 mph /  4.8 km/h 50 % 0 in /  0.0 mm
21:18 53.6 °F /  12.0 °C 36 °F /  2.2 °C 30.2 in /  1022.9 hPa NNW 5.8 mph /  9.3 km/h 5.8 mph /  9.3 km/h 51 % 0 in /  0.0 mm
21:23 53.4 °F /  11.9 °C 35.8 °F /  2.1 °C 30.2 in /  1022.9 hPa SW 5.8 mph /  9.3 km/h 5.8 mph /  9.3 km/h 51 % 0 in /  0.0 mm
21:25 44.6 °F /  7.0 °C 27.1 °F /  -2.7 °C 30.3 in /  1026.0 hPa Calm   2 mph /  3.2 km/h 50 % 0 in /  0.0 mm
21:29 53.1 °F /  11.7 °C 35.4 °F /  1.9 °C 30.2 in /  1022.9 hPa West 5.8 mph /  9.3 km/h 5.8 mph /  9.3 km/h 51 % 0 in /  0.0 mm
21:30 53.1 °F /  11.7 °C 35.4 °F /  1.9 °C 30.2 in /  1022.9 hPa WSW 13.8 mph /  22.2 km/h 13.8 mph /  22.2 km/h 51 % 0 in /  0.0 mm
21:35 53.1 °F /  11.7 °C 34.9 °F /  1.6 °C 30.2 in /  1022.9 hPa WNW 4.6 mph /  7.4 km/h 4.6 mph /  7.4 km/h 50 % 0 in /  0.0 mm
21:40 52.7 °F /  11.5 °C 35.1 °F /  1.7 °C 30.2 in /  1022.9 hPa West 4.7 mph /  7.6 km/h 4.7 mph /  7.6 km/h 51 % 0 in /  0.0 mm
21:45 52.5 °F /  11.4 °C 34.3 °F /  1.3 °C 30.2 in /  1022.9 hPa West 3.5 mph /  5.6 km/h 3.6 mph /  5.8 km/h 50 % 0 in /  0.0 mm
21:50 52.3 °F /  11.3 °C 34.2 °F /  1.2 °C 30.2 in /  1022.9 hPa SSW 9.2 mph /  14.8 km/h 9.2 mph /  14.8 km/h 50 % 0 in /  0.0 mm
21:55 52.2 °F /  11.2 °C 34.2 °F /  1.2 °C 30.2 in /  1022.9 hPa WSW 8.1 mph /  13.0 km/h 8.1 mph /  13.0 km/h 50 % 0 in /  0.0 mm
22:00 52 °F /  11.1 °C 34 °F /  1.1 °C 30.2 in /  1022.9 hPa West 4.6 mph /  7.4 km/h 4.6 mph /  7.4 km/h 50 % 0 in /  0.0 mm
22:05 52 °F /  11.1 °C 34 °F /  1.1 °C 30.2 in /  1023.9 hPa West 6.9 mph /  11.1 km/h 6.9 mph /  11.1 km/h 50 % 0 in /  0.0 mm
22:10 51.8 °F /  11.0 °C 33.6 °F /  0.9 °C 30.2 in /  1023.9 hPa WSW 6.9 mph /  11.1 km/h 6.9 mph /  11.1 km/h 50 % 0 in /  0.0 mm
22:15 51.4 °F /  10.8 °C 32.9 °F /  0.5 °C 30.2 in /  1023.9 hPa West 5.8 mph /  9.3 km/h 5.8 mph /  9.3 km/h 49 % 0 in /  0.0 mm
22:20 51.1 °F /  10.6 °C 32.5 °F /  0.3 °C 30.2 in /  1023.9 hPa SW 3.8 mph /  6.1 km/h 3.8 mph /  6.1 km/h 49 % 0 in /  0.0 mm
22:25 50.9 °F /  10.5 °C 32.4 °F /  0.2 °C 30.2 in /  1023.9 hPa SW 4.6 mph /  7.4 km/h 4.6 mph /  7.4 km/h 49 % 0 in /  0.0 mm
22:30 50.5 °F /  10.3 °C 32.2 °F /  0.1 °C 30.2 in /  1023.9 hPa West 4.6 mph /  7.4 km/h 4.6 mph /  7.4 km/h 49 % 0 in /  0.0 mm
22:35 50.5 °F /  10.3 °C 32.2 °F /  0.1 °C 30.2 in /  1023.9 hPa West 4.6 mph /  7.4 km/h 4.6 mph /  7.4 km/h 49 % 0 in /  0.0 mm
22:40 50.4 °F /  10.2 °C 31.8 °F /  -0.1 °C 30.2 in /  1023.9 hPa SW 6 mph /  9.7 km/h 6 mph /  9.7 km/h 49 % 0 in /  0.0 mm
22:45 50.2 °F /  10.1 °C 31.6 °F /  -0.2 °C 30.2 in /  1023.9 hPa SW 3.5 mph /  5.6 km/h 3.5 mph /  5.6 km/h 49 % 0 in /  0.0 mm
22:50 49.8 °F /  9.9 °C 31.5 °F /  -0.3 °C 30.2 in /  1023.9 hPa SW 3.5 mph /  5.6 km/h 3.5 mph /  5.6 km/h 49 % 0 in /  0.0 mm
22:55 49.6 °F /  9.8 °C 31.3 °F /  -0.4 °C 30.2 in /  1023.9 hPa WSW 3.5 mph /  5.6 km/h 3.5 mph /  5.6 km/h 49 % 0 in /  0.0 mm
22:56 49.6 °F /  9.8 °C 31.3 °F /  -0.4 °C 30.2 in /  1023.9 hPa WSW 3.5 mph /  5.6 km/h 3.5 mph /  5.6 km/h 49 % 0 in /  0.0 mm
23:01 49.3 °F /  9.6 °C 30.9 °F /  -0.6 °C 30.2 in /  1022.9 hPa WSW 3.5 mph /  5.6 km/h 3.5 mph /  5.6 km/h 49 % 0 in /  0.0 mm
23:05 41.9 °F /  5.5 °C 25.2 °F /  -3.8 °C 30.3 in /  1026.0 hPa NW 1 mph /  1.6 km/h 1 mph /  1.6 km/h 51 % 0 in /  0.0 mm
23:06 48.9 °F /  9.4 °C 30.6 °F /  -0.8 °C 30.2 in /  1022.9 hPa SW 1.2 mph /  1.9 km/h   49 % 0 in /  0.0 mm
23:11 48.7 °F /  9.3 °C 30.4 °F /  -0.9 °C 30.2 in /  1022.9 hPa SW 2.3 mph /  3.7 km/h   49 % 0 in /  0.0 mm
23:15 41.7 °F /  5.4 °C 25 °F /  -3.9 °C 30.3 in /  1026.0 hPa NNW 1 mph /  1.6 km/h 2 mph /  3.2 km/h 51 % 0 in /  0.0 mm
23:16 48.6 °F /  9.2 °C 30.2 °F /  -1.0 °C 30.2 in /  1023.9 hPa WNW 1.6 mph /  2.6 km/h 1.6 mph /  2.6 km/h 49 % 0 in /  0.0 mm
23:21 48.4 °F /  9.1 °C 30 °F /  -1.1 °C 30.2 in /  1023.9 hPa SSW 2.3 mph /  3.7 km/h 2.3 mph /  3.7 km/h 49 % 0 in /  0.0 mm
23:25 42.1 °F /  5.6 °C 25.2 °F /  -3.8 °C 30.3 in /  1026.0 hPa North 1 mph /  1.6 km/h 4 mph /  6.4 km/h 51 % 0 in /  0.0 mm
23:26 48.2 °F /  9.0 °C 29.8 °F /  -1.2 °C 30.2 in /  1023.9 hPa West 2.3 mph /  3.7 km/h 2.3 mph /  3.7 km/h 49 % 0 in /  0.0 mm
23:31 48 °F /  8.9 °C 29.7 °F /  -1.3 °C 30.2 in /  1023.9 hPa West 2.4 mph /  3.9 km/h 2.4 mph /  3.9 km/h 49 % 0 in /  0.0 mm
23:35 41.9 °F /  5.5 °C 25.5 °F /  -3.6 °C 30.3 in /  1026.0 hPa NNE 1 mph /  1.6 km/h 3 mph /  4.8 km/h 52 % 0 in /  0.0 mm
23:36 47.7 °F /  8.7 °C 29.5 °F /  -1.4 °C 30.2 in /  1023.9 hPa WSW 2.3 mph /  3.7 km/h 2.3 mph /  3.7 km/h 49 % 0 in /  0.0 mm
23:41 47.5 °F /  8.6 °C 29.3 °F /  -1.5 °C 30.2 in /  1023.9 hPa WSW 2.4 mph /  3.9 km/h 2.4 mph /  3.9 km/h 49 % 0 in /  0.0 mm
23:45 41.7 °F /  5.4 °C 25.3 °F /  -3.7 °C 30.3 in /  1026.0 hPa NNE 1 mph /  1.6 km/h 2 mph /  3.2 km/h 52 % 0 in /  0.0 mm
23:46 47.5 °F /  8.6 °C 29.7 °F /  -1.3 °C 30.2 in /  1023.9 hPa WSW 3.5 mph /  5.6 km/h 3.5 mph /  5.6 km/h 50 % 0 in /  0.0 mm
23:51 47.5 °F /  8.6 °C 29.7 °F /  -1.3 °C 30.2 in /  1023.9 hPa West 1.2 mph /  1.9 km/h   50 % 0 in /  0.0 mm
23:55 41.5 °F /  5.3 °C 25.2 °F /  -3.8 °C 30.3 in /  1026.0 hPa North 1 mph /  1.6 km/h 5 mph /  8.0 km/h 52 % 0 in /  0.0 mm
23:56 47.1 °F /  8.4 °C 29.5 °F /  -1.4 °C 30.2 in /  1023.9 hPa SW 2.3 mph /  3.7 km/h 2.3 mph /  3.7 km/h 50 % 0 in /  0.0 mm
Meteo Sesrovires
Elogis d' Weather Underground - 3.75 mb

Guio original per  Jim McMurry - jmcmurry@mwt.net Adaptat per a la plantilla per  Wim van der Kuil - Leuven-Template.eu

Trobareu la nostra informacio del temps tambe a:

Weather Underground

AWEKAS